Terminal Aerodrome Forecast
Issued by NWS Cleveland, OH

Home | Current Version | Previous Version | Graphics & Text | Print | Product List | Glossary Off
Versions: 1 2 3 4 5 6 7 8 9 10 11 12 13 14 15 16 17 18

654
FTUS41 KCLE 041730
TAFCAK
TAF
KCAK 041730Z 0418/0518 14008KT P6SM OVC120
     FM042100 12008KT P6SM SCT035 OVC080
      TEMPO 0422/0423 OVC035
     FM042300 12008KT P6SM SCT020 OVC035
      TEMPO 0423/0501 5SM -RA OVC020
     FM050100 15010KT 5SM -RA BR OVC015
      TEMPO 0501/0505 3SM -RASN BR OVC008
     FM050500 22012KT 6SM -DZ OVC008
     FM051200 28010KT P6SM OVC015=

USA.gov is the U.S. government's official web portal to all federal, state and local government web resources and services.